Time;durP1;ratioP1;P1;durP2;ratioP2;P2;SDS_P1;SDS_P2;PMS_P1;PMS_P2;Temp;Humidity;BMP_temperature;BMP_pressure;BME280_temperature;BME280_humidity;BME280_pressure;Samples;Min_cycle;Max_cycle;Signal;HPM_P1;HPM_P2
2022/09/06 00:02:13;;;;;;;2.35;0.77;;;;;;;15.11;83.17;102125.78;5000574;28;20203;-49
2022/09/06 00:04:39;;;;;;;3.08;0.70;;;;;;;15.16;83.02;102122.91;5001818;28;20216;-50
2022/09/06 00:07:04;;;;;;;1.98;0.60;;;;;;;15.13;83.26;102115.81;5004339;28;20251;-51
2022/09/06 00:09:30;;;;;;;3.13;0.88;;;;;;;15.14;83.35;102132.88;5006096;28;20193;-50
2022/09/06 00:11:55;;;;;;;3.80;1.10;;;;;;;15.08;83.39;102112.38;5007871;28;20315;-51
2022/09/06 00:14:21;;;;;;;2.05;0.80;;;;;;;15.07;83.64;102115.16;5001800;28;20528;-49
2022/09/06 00:16:46;;;;;;;2.40;0.85;;;;;;;15.05;83.73;102107.09;4986544;28;20201;-48
2022/09/06 00:19:12;;;;;;;4.13;0.63;;;;;;;15.11;83.48;102109.56;4994021;28;20185;-50
2022/09/06 00:21:37;;;;;;;2.58;0.80;;;;;;;15.16;83.74;102115.69;4996397;28;20192;-49
2022/09/06 00:24:03;;;;;;;1.85;0.82;;;;;;;15.06;83.67;102105.25;4997951;28;20204;-46
2022/09/06 00:26:28;;;;;;;1.00;0.77;;;;;;;15.02;83.82;102101.78;5000001;28;20244;-47
2022/09/06 00:28:54;;;;;;;2.25;0.98;;;;;;;15.14;83.66;102119.38;5002822;28;20181;-48
2022/09/06 00:31:22;;;;;;;2.50;0.80;;;;;;;15.11;83.46;102108.66;5003742;28;20192;-47
2022/09/06 00:33:47;;;;;;;0.65;0.63;;;;;;;14.98;83.86;102102.88;5005145;28;20177;-48
2022/09/06 00:36:13;;;;;;;2.88;0.90;;;;;;;15.01;84.04;102105.44;5004175;28;20207;-47
2022/09/06 00:38:39;;;;;;;2.58;0.80;;;;;;;14.95;84.01;102108.34;5001074;28;20208;-48
2022/09/06 00:41:07;;;;;;;2.13;0.77;;;;;;;15.10;83.70;102117.72;4990556;28;20355;-45
2022/09/06 00:43:33;;;;;;;1.80;0.90;;;;;;;15.01;83.89;102116.25;4993477;28;20201;-48
2022/09/06 00:45:58;;;;;;;1.60;0.70;;;;;;;15.04;83.51;102116.13;4995353;28;20240;-47
2022/09/06 00:48:24;;;;;;;3.65;0.70;;;;;;;15.01;83.75;102113.53;4998274;28;20670;-46
2022/09/06 00:50:55;;;;;;;2.50;0.90;;;;;;;15.09;83.19;102105.19;4999454;28;20191;-45
2022/09/06 00:53:20;;;;;;;2.70;0.73;;;;;;;15.09;83.11;102110.56;4997368;28;20216;-47
2022/09/06 00:55:47;;;;;;;3.25;0.90;;;;;;;15.08;82.96;102108.78;5003523;28;20208;-46
2022/09/06 00:58:12;;;;;;;1.45;0.80;;;;;;;15.12;83.03;102105.94;5005200;28;20275;-45
2022/09/06 01:00:38;;;;;;;1.95;0.70;;;;;;;15.04;82.96;102103.53;5007238;28;20219;-48
2022/09/06 01:03:05;;;;;;;2.88;0.70;;;;;;;15.07;83.01;102102.53;5002993;28;20267;-47
2022/09/06 01:05:56;;;;;;;3.33;0.98;;;;;;;15.09;82.68;102091.69;4990704;28;20237;-46
2022/09/06 01:08:46;;;;;;;2.15;1.08;;;;;;;15.02;82.62;102099.09;4974463;28;20205;-46
2022/09/06 01:11:34;;;;;;;2.05;0.70;;;;;;;15.12;82.22;102102.34;4991586;28;20792;-47
2022/09/06 01:14:15;;;;;;;5.13;0.88;;;;;;;15.13;82.06;102102.31;4997742;28;20189;-46
2022/09/06 01:16:50;;;;;;;2.30;0.80;;;;;;;15.13;82.24;102102.31;4998508;28;20213;-46
2022/09/06 01:19:47;;;;;;;1.83;0.90;;;;;;;15.06;82.11;102107.97;4996993;28;20193;-47
2022/09/06 01:22:38;;;;;;;2.15;0.90;;;;;;;14.94;82.73;102082.31;5001417;28;20220;-46
2022/09/06 01:25:34;;;;;;;1.95;0.60;;;;;;;15.09;82.38;102086.28;5004798;28;20266;-48
2022/09/06 01:28:33;;;;;;;2.35;0.80;;;;;;;15.09;81.76;102084.44;5008885;28;20731;-48
2022/09/06 01:31:10;;;;;;;0.93;0.85;;;;;;;15.03;81.91;102084.69;5007270;28;20598;-47
2022/09/06 01:33:54;;;;;;;3.30;0.90;;;;;;;14.94;82.20;102083.19;5005517;28;20208;-48
2022/09/06 01:36:25;;;;;;;2.35;0.80;;;;;;;14.95;82.45;102082.25;5003026;28;20303;-46
2022/09/06 01:38:51;;;;;;;1.48;0.73;;;;;;;14.96;82.11;102091.25;4999076;28;20212;-46
2022/09/06 01:41:16;;;;;;;5.80;1.02;;;;;;;14.93;81.92;102076.00;5004584;28;20219;-46
2022/09/06 01:43:47;;;;;;;1.67;0.88;;;;;;;14.91;82.29;102083.31;5002908;28;20201;-45
2022/09/06 01:46:48;;;;;;;6.53;0.90;;;;;;;14.94;81.76;102082.31;5004671;28;20217;-47
2022/09/06 01:49:31;;;;;;;6.63;1.00;;;;;;;14.91;81.97;102077.00;5000810;28;20188;-47
2022/09/06 01:52:05;;;;;;;1.20;0.80;;;;;;;14.92;81.85;102076.97;5005318;28;20177;-46
2022/09/06 01:55:10;;;;;;;2.30;0.82;;;;;;;14.99;81.57;102080.31;4994341;28;20271;-48
2022/09/06 01:57:47;;;;;;;0.93;0.70;;;;;;;14.88;81.42;102078.00;4996410;28;20216;-47
2022/09/06 02:00:19;;;;;;;0.70;0.60;;;;;;;15.12;80.95;102083.44;4998105;28;20732;-51
2022/09/06 02:03:08;;;;;;;2.55;0.98;;;;;;;14.95;80.78;102078.66;5002786;28;20569;-53
2022/09/06 02:05:50;;;;;;;0.88;0.73;;;;;;;14.89;81.06;102084.28;5003078;28;20311;-49
2022/09/06 02:08:41;;;;;;;1.75;0.60;;;;;;;14.93;81.27;102070.63;5004244;28;20188;-51
2022/09/06 02:11:08;;;;;;;1.45;0.80;;;;;;;15.03;80.87;102074.75;4999487;28;20193;-53
2022/09/06 02:13:40;;;;;;;4.13;1.10;;;;;;;14.93;80.72;102072.44;4999249;28;20182;-52
2022/09/06 02:16:09;;;;;;;2.63;1.00;;;;;;;14.96;80.62;102080.44;4998348;28;20831;-52
2022/09/06 02:19:10;;;;;;;3.80;0.85;;;;;;;15.08;80.44;102079.09;4998798;28;20216;-53
2022/09/06 02:21:41;;;;;;;6.45;0.85;;;;;;;14.96;80.37;102080.44;4953447;28;20294;-53
2022/09/06 02:24:11;;;;;;;2.03;0.90;;;;;;;15.02;80.51;102075.69;4992484;28;20228;-53
2022/09/06 02:26:41;;;;;;;2.97;0.93;;;;;;;15.00;80.65;102084.81;5002070;28;20232;-52
2022/09/06 02:29:07;;;;;;;2.75;0.77;;;;;;;14.97;80.50;102084.88;5000951;28;20192;-53
2022/09/06 02:31:38;;;;;;;4.40;0.93;;;;;;;14.96;80.59;102088.53;5000395;28;20554;-53
2022/09/06 02:34:04;;;;;;;0.93;0.70;;;;;;;15.02;80.24;102083.81;5000064;28;20864;-53
2022/09/06 02:36:30;;;;;;;2.53;0.82;;;;;;;15.02;80.06;102082.91;4996925;28;20213;-52
2022/09/06 02:38:58;;;;;;;1.25;0.55;;;;;;;15.19;79.88;102082.28;4994614;28;20729;-54
2022/09/06 02:41:25;;;;;;;1.98;0.90;;;;;;;15.11;79.44;102073.56;4993875;28;20226;-52
2022/09/06 02:43:51;;;;;;;1.27;0.90;;;;;;;15.19;79.14;102080.44;5001764;28;20511;-53
2022/09/06 02:46:16;;;;;;;1.30;0.63;;;;;;;15.21;78.81;102075.00;4998963;28;20216;-54
2022/09/06 02:48:42;;;;;;;3.08;0.80;;;;;;;15.13;78.67;102066.31;4999771;28;20660;-52
2022/09/06 02:51:08;;;;;;;2.72;0.88;;;;;;;15.29;78.59;102070.19;4996121;28;20189;-52
2022/09/06 02:53:34;;;;;;;0.88;0.80;;;;;;;15.14;78.80;102068.97;4998396;28;20223;-52
2022/09/06 02:55:59;;;;;;;3.05;1.13;;;;;;;15.19;78.40;102066.94;5002170;28;20221;-53
2022/09/06 02:58:25;;;;;;;1.17;0.85;;;;;;;15.22;78.07;102065.97;4999343;28;20496;-53
2022/09/06 03:00:52;;;;;;;1.00;0.70;;;;;;;15.18;78.15;102065.22;4999652;28;20185;-53
2022/09/06 03:03:21;;;;;;;3.17;0.80;;;;;;;15.21;78.00;102065.06;5004612;28;20184;-52
2022/09/06 03:05:49;;;;;;;1.23;0.82;;;;;;;15.29;78.09;102062.09;5003042;28;20224;-51
2022/09/06 03:08:15;;;;;;;2.83;1.13;;;;;;;15.21;77.59;102062.38;4993009;28;20186;-50
2022/09/06 03:10:47;;;;;;;2.20;1.13;;;;;;;15.24;77.60;102069.50;4994679;28;20200;-54
2022/09/06 03:13:12;;;;;;;0.70;0.70;;;;;;;15.23;77.65;102065.91;4994605;28;20189;-52
2022/09/06 03:15:38;;;;;;;4.53;0.90;;;;;;;15.20;77.71;102055.22;4996069;28;20564;-52
2022/09/06 03:18:03;;;;;;;1.27;0.80;;;;;;;15.20;77.42;102052.53;4998731;28;20184;-52
2022/09/06 03:20:29;;;;;;;1.98;0.80;;;;;;;15.24;77.08;102048.78;5000846;28;20184;-52
2022/09/06 03:22:55;;;;;;;2.13;0.60;;;;;;;15.25;76.90;102045.13;5000753;28;20192;-51
2022/09/06 03:25:20;;;;;;;2.60;0.85;;;;;;;15.30;76.94;102044.06;5000502;28;20197;-52
2022/09/06 03:27:46;;;;;;;2.72;0.90;;;;;;;15.35;76.59;102036.66;5000100;28;20212;-52
2022/09/06 03:30:12;;;;;;;1.55;0.85;;;;;;;15.36;76.41;102038.44;4998979;28;20538;-47
2022/09/06 03:32:37;;;;;;;1.13;0.60;;;;;;;15.20;76.52;102025.53;4994736;28;20640;-48
2022/09/06 03:35:03;;;;;;;3.05;0.73;;;;;;;15.18;76.63;102032.81;4993521;28;20200;-47
2022/09/06 03:37:28;;;;;;;3.50;0.82;;;;;;;15.19;76.67;102029.16;4995395;28;20209;-45
2022/09/06 03:39:53;;;;;;;1.77;0.60;;;;;;;15.21;76.63;102032.69;4998801;28;20272;-47
2022/09/06 03:42:19;;;;;;;0.80;0.70;;;;;;;15.18;76.90;102031.94;4998228;28;20185;-46
2022/09/06 03:44:44;;;;;;;3.17;1.20;;;;;;;15.09;76.73;102027.78;5005962;28;20208;-45
2022/09/06 03:47:10;;;;;;;1.38;1.02;;;;;;;15.17;76.74;102030.16;5003905;28;20295;-46
2022/09/06 03:49:35;;;;;;;2.90;0.82;;;;;;;15.12;76.62;102026.75;5004930;28;20184;-46
2022/09/06 03:52:01;;;;;;;2.05;0.80;;;;;;;15.02;76.80;102026.22;5006799;28;20185;-47
2022/09/06 03:54:27;;;;;;;2.78;0.90;;;;;;;15.11;77.19;102028.59;5007139;28;20652;-46
2022/09/06 03:56:53;;;;;;;3.15;1.00;;;;;;;15.11;76.69;102023.19;4998116;28;20748;-46
2022/09/06 03:59:19;;;;;;;3.80;1.02;;;;;;;15.05;76.87;102018.03;4992851;28;20272;-47
2022/09/06 04:01:44;;;;;;;3.35;1.05;;;;;;;14.99;77.24;102015.56;4994813;28;20185;-46
2022/09/06 04:04:10;;;;;;;2.28;1.08;;;;;;;15.04;77.09;102018.94;4997375;28;20209;-45
2022/09/06 04:06:35;;;;;;;2.30;1.15;;;;;;;14.98;77.05;102020.06;4998247;28;20651;-45
2022/09/06 04:09:00;;;;;;;4.13;1.20;;;;;;;14.90;77.54;102015.91;5000636;28;20193;-47
2022/09/06 04:11:26;;;;;;;1.80;1.08;;;;;;;14.93;77.36;102008.56;5002276;28;20238;-47
2022/09/06 04:13:51;;;;;;;3.75;1.10;;;;;;;14.85;77.13;102007.97;5004966;28;20239;-48
2022/09/06 04:16:17;;;;;;;3.60;0.98;;;;;;;14.73;77.89;102006.59;5000382;28;20209;-51
2022/09/06 04:18:43;;;;;;;2.38;0.70;;;;;;;14.74;77.83;102007.50;5003631;28;20275;-46
2022/09/06 04:21:08;;;;;;;2.20;0.90;;;;;;;14.72;78.04;102003.97;5000517;28;20763;-46
2022/09/06 04:23:34;;;;;;;1.23;0.82;;;;;;;14.69;77.89;101996.84;4991569;28;20202;-46
2022/09/06 04:25:59;;;;;;;1.80;0.93;;;;;;;14.72;78.15;102009.38;4989928;28;20212;-46
2022/09/06 04:28:25;;;;;;;1.70;1.02;;;;;;;14.73;78.00;102000.34;4995560;28;20255;-47
2022/09/06 04:30:53;;;;;;;3.92;1.10;;;;;;;14.73;77.38;102003.91;4997386;28;20608;-47
2022/09/06 04:33:19;;;;;;;4.50;1.17;;;;;;;14.63;77.86;102008.75;4998847;28;20494;-46
2022/09/06 04:35:49;;;;;;;2.25;0.90;;;;;;;14.62;77.89;102007.00;4997379;28;20312;-46
2022/09/06 04:38:15;;;;;;;3.05;0.85;;;;;;;14.62;77.58;102003.41;5001881;28;20191;-47
2022/09/06 04:40:41;;;;;;;1.85;0.95;;;;;;;14.66;77.75;102007.78;4999324;28;20196;-46
2022/09/06 04:43:06;;;;;;;0.98;0.70;;;;;;;14.58;77.89;102007.16;5006755;28;20189;-48
2022/09/06 04:45:31;;;;;;;2.65;1.00;;;;;;;14.58;77.90;102024.25;5005180;28;20590;-45
2022/09/06 04:47:57;;;;;;;3.20;1.35;;;;;;;14.58;77.44;102023.34;4979456;28;20732;-47
2022/09/06 04:50:24;;;;;;;1.02;0.93;;;;;;;14.52;77.87;102016.34;5007260;28;20699;-47
2022/09/06 04:52:52;;;;;;;1.17;0.80;;;;;;;14.59;77.71;102020.59;5000623;28;20184;-46
2022/09/06 04:55:17;;;;;;;2.30;1.00;;;;;;;14.52;77.87;102020.81;5001917;28;20185;-47
2022/09/06 04:57:42;;;;;;;3.08;1.00;;;;;;;14.47;78.02;102022.81;5006325;28;20680;-47
2022/09/06 05:00:08;;;;;;;5.50;0.98;;;;;;;14.57;78.02;102024.28;5004328;28;20255;-47
2022/09/06 05:02:34;;;;;;;1.40;0.85;;;;;;;14.48;77.72;102035.38;5006780;28;20189;-48
2022/09/06 05:04:59;;;;;;;1.38;0.77;;;;;;;14.46;78.05;102043.50;5008245;28;20201;-49
2022/09/06 05:07:25;;;;;;;2.28;0.95;;;;;;;14.51;77.98;102033.44;5010481;28;20215;-49
2022/09/06 05:09:50;;;;;;;6.55;1.15;;;;;;;14.50;77.56;102030.81;5005778;28;20660;-49
2022/09/06 05:12:16;;;;;;;1.80;0.80;;;;;;;14.39;77.98;102039.28;4994621;28;20566;-47
2022/09/06 05:14:41;;;;;;;2.60;1.10;;;;;;;14.52;77.57;102037.91;5000939;28;20204;-48
2022/09/06 05:17:07;;;;;;;1.17;0.88;;;;;;;14.53;77.43;102034.25;4997678;28;20309;-45
2022/09/06 05:19:32;;;;;;;2.25;1.27;;;;;;;14.59;77.10;102034.09;5001483;28;20278;-45
2022/09/06 05:21:57;;;;;;;1.85;0.85;;;;;;;14.57;76.87;102032.38;5002300;28;20177;-44
2022/09/06 05:24:23;;;;;;;2.53;0.90;;;;;;;14.60;77.26;102043.91;5003324;28;20300;-45
2022/09/06 05:26:48;;;;;;;2.35;1.10;;;;;;;14.57;77.12;102035.06;5004959;28;20205;-48
2022/09/06 05:29:14;;;;;;;3.30;0.90;;;;;;;14.60;77.18;102037.66;5004987;28;20189;-46
2022/09/06 05:31:39;;;;;;;2.08;1.08;;;;;;;14.64;76.75;102039.31;5010342;28;20798;-47
2022/09/06 05:34:05;;;;;;;1.95;1.00;;;;;;;14.70;76.46;102039.09;5011457;28;20180;-46
2022/09/06 05:36:30;;;;;;;3.42;1.08;;;;;;;14.75;76.10;102034.41;4997513;28;20208;-46
2022/09/06 05:38:57;;;;;;;2.20;0.98;;;;;;;14.82;75.92;102029.66;5001204;28;20193;-47
2022/09/06 05:41:23;;;;;;;5.50;0.93;;;;;;;14.88;76.00;102026.75;4998081;28;20821;-48
2022/09/06 05:43:49;;;;;;;2.80;0.90;;;;;;;14.93;75.37;102026.56;5005812;28;20231;-48
2022/09/06 05:46:15;;;;;;;2.42;1.02;;;;;;;15.02;75.28;102023.50;5012146;28;20212;-48
2022/09/06 05:48:41;;;;;;;4.95;1.23;;;;;;;15.05;74.95;102031.53;4998824;28;20188;-47
2022/09/06 05:51:11;;;;;;;3.03;1.00;;;;;;;15.15;74.69;102022.13;5012261;28;20785;-48
2022/09/06 05:53:38;;;;;;;2.63;0.98;;;;;;;15.08;74.75;102017.03;4994248;28;20627;-48
2022/09/06 05:56:04;;;;;;;1.25;0.80;;;;;;;15.01;74.92;102013.69;5000037;28;20212;-48
2022/09/06 05:58:29;;;;;;;10.13;1.25;;;;;;;15.23;74.60;102016.44;4991934;28;20197;-47
2022/09/06 06:01:16;;;;;;;3.22;1.35;;;;;;;15.32;73.79;102020.59;4992434;28;20244;-48
2022/09/06 06:03:48;;;;;;;1.40;0.90;;;;;;;15.31;73.91;102011.63;4991745;28;20919;-47
2022/09/06 06:06:13;;;;;;;1.23;0.80;;;;;;;15.32;74.27;102012.50;4991999;28;20198;-50
2022/09/06 06:08:39;;;;;;;3.33;0.75;;;;;;;15.35;73.96;102002.47;4992036;28;20247;-47
2022/09/06 06:11:04;;;;;;;3.95;1.25;;;;;;;15.19;74.26;101999.47;5008120;28;20267;-51
2022/09/06 06:13:33;;;;;;;2.17;0.80;;;;;;;15.20;74.41;102006.63;5003085;28;20646;-47
2022/09/06 06:16:00;;;;;;;5.65;1.10;;;;;;;15.29;74.98;102002.69;5008433;28;20283;-48
2022/09/06 06:18:25;;;;;;;8.00;1.10;;;;;;;15.39;74.05;102006.81;4998601;28;20180;-48
2022/09/06 06:20:51;;;;;;;5.78;0.85;;;;;;;15.30;74.26;102000.88;4997113;28;20192;-49
2022/09/06 06:23:16;;;;;;;4.25;1.20;;;;;;;15.35;74.21;102001.56;5011105;28;20255;-47
2022/09/06 06:25:41;;;;;;;3.92;1.10;;;;;;;15.43;74.51;101999.44;5011651;28;20523;-48
2022/09/06 06:28:07;;;;;;;1.38;0.90;;;;;;;15.54;73.97;101997.19;5011377;28;20719;-51
2022/09/06 06:30:32;;;;;;;4.70;0.90;;;;;;;15.48;73.47;101996.56;5011670;28;20698;-49
2022/09/06 06:32:59;;;;;;;6.53;1.05;;;;;;;15.51;73.40;101997.31;5010213;28;20585;-48
2022/09/06 06:35:24;;;;;;;3.70;1.17;;;;;;;15.57;73.34;101997.06;4991764;28;20166;-48
2022/09/06 06:37:50;;;;;;;3.38;1.00;;;;;;;15.53;73.41;101997.25;4992985;28;20204;-48
2022/09/06 06:40:15;;;;;;;2.28;0.90;;;;;;;15.67;73.26;101994.88;4994241;28;20281;-52
2022/09/06 06:42:41;;;;;;;2.08;1.20;;;;;;;15.72;72.99;101998.31;4992843;28;20228;-49
2022/09/06 06:45:07;;;;;;;2.80;1.07;;;;;;;15.80;72.63;101997.97;4964506;28;1090707;-47
2022/09/06 06:47:32;;;;;;;4.40;1.00;;;;;;;15.81;72.68;101994.34;4997794;28;20455;-48
2022/09/06 06:49:58;;;;;;;1.48;0.88;;;;;;;15.77;72.49;101996.28;5012252;28;20187;-49
2022/09/06 06:52:24;;;;;;;2.92;1.17;;;;;;;15.91;72.67;101998.41;5011997;28;20586;-49
2022/09/06 06:54:50;;;;;;;4.22;1.10;;;;;;;15.93;72.41;101998.34;5010319;28;20188;-47
2022/09/06 06:57:15;;;;;;;5.00;1.20;;;;;;;16.13;72.04;102005.63;4997695;28;20304;-49
2022/09/06 06:59:41;;;;;;;5.78;1.02;;;;;;;16.25;71.97;102000.56;5005965;28;20212;-49
2022/09/06 07:02:06;;;;;;;3.50;1.05;;;;;;;16.40;71.40;101993.63;5008905;28;20271;-51
2022/09/06 07:04:32;;;;;;;3.20;1.00;;;;;;;16.53;70.79;102001.16;5009804;28;20189;-49
2022/09/06 07:06:57;;;;;;;2.97;1.20;;;;;;;16.59;70.72;102009.88;5003580;28;20301;-49
2022/09/06 07:09:23;;;;;;;2.88;1.25;;;;;;;16.65;70.02;101987.97;5011859;28;20169;-51
2022/09/06 07:11:49;;;;;;;5.38;1.17;;;;;;;16.86;69.15;101999.69;5007572;28;20687;-51
2022/09/06 07:14:17;;;;;;;3.55;1.20;;;;;;;16.83;68.91;101999.81;5005923;28;20172;-47
2022/09/06 07:16:43;;;;;;;4.43;1.10;;;;;;;16.77;69.06;102000.09;4999544;28;20200;-51
2022/09/06 07:19:09;;;;;;;2.65;1.10;;;;;;;16.74;69.11;101989.38;4992285;28;20170;-50
2022/09/06 07:21:34;;;;;;;1.90;1.13;;;;;;;17.05;68.88;101998.81;5006428;28;20165;-49
2022/09/06 07:24:00;;;;;;;2.38;0.90;;;;;;;17.13;67.83;101985.81;5003247;28;20298;-49
2022/09/06 07:26:29;;;;;;;2.33;1.05;;;;;;;17.10;68.04;101996.81;4998040;28;20569;-49
2022/09/06 07:28:59;;;;;;;7.57;1.88;;;;;;;16.96;68.11;101993.84;4998243;28;20189;-46
2022/09/06 07:31:27;;;;;;;1.60;1.05;;;;;;;17.20;67.54;101992.69;4998830;28;20219;-49
2022/09/06 07:33:52;;;;;;;1.13;0.80;;;;;;;17.18;67.69;102005.41;4999307;28;20192;-48
2022/09/06 07:36:18;;;;;;;2.28;1.13;;;;;;;16.89;68.05;101995.97;5010877;28;20208;-48
2022/09/06 07:38:48;;;;;;;4.03;1.10;;;;;;;17.17;67.95;101991.97;5003218;28;20664;-52
2022/09/06 07:41:14;;;;;;;4.88;1.33;;;;;;;17.60;67.15;101985.38;5007243;28;20658;-51
2022/09/06 07:43:40;;;;;;;3.95;1.30;;;;;;;17.47;66.17;101979.66;4995151;28;20292;-53
2022/09/06 07:46:08;;;;;;;3.63;1.10;;;;;;;17.09;66.72;101990.47;4995804;28;20692;-48
2022/09/06 07:48:36;;;;;;;2.42;1.10;;;;;;;17.18;66.88;101991.88;5011169;28;20307;-51
2022/09/06 07:51:14;;;;;;;4.88;1.30;;;;;;;17.04;66.75;101994.38;4996564;28;20691;-48
2022/09/06 07:53:40;;;;;;;3.35;1.20;;;;;;;17.13;66.70;101993.94;5001179;28;20270;-47
2022/09/06 07:56:08;;;;;;;3.80;1.30;;;;;;;17.37;66.21;102002.72;4995153;28;20299;-48
2022/09/06 07:58:34;;;;;;;2.85;0.95;;;;;;;17.32;65.86;102003.88;5006691;28;20184;-50
2022/09/06 08:01:15;;;;;;;2.95;1.15;;;;;;;17.04;66.01;101999.78;4993989;28;20569;-50
2022/09/06 08:03:41;;;;;;;2.75;0.90;;;;;;;17.33;65.66;102003.81;4993346;28;20201;-50
2022/09/06 08:06:06;;;;;;;2.72;1.17;;;;;;;17.42;65.72;101995.25;4990201;28;20223;-51
2022/09/06 08:08:32;;;;;;;5.05;1.27;;;;;;;17.44;65.97;101989.75;4990707;28;20193;-50
2022/09/06 08:10:57;;;;;;;2.22;1.00;;;;;;;17.53;64.89;101992.00;4991023;28;20272;-52
2022/09/06 08:13:23;;;;;;;3.95;1.00;;;;;;;17.42;65.80;101983.53;4991626;28;20574;-51
2022/09/06 08:15:56;;;;;;;3.20;1.38;;;;;;;17.40;65.24;101980.88;4992064;28;20209;-52
2022/09/06 08:18:21;;;;;;;1.63;1.00;;;;;;;17.50;65.07;101971.38;4993326;28;20191;-52
2022/09/06 08:20:47;;;;;;;1.77;0.95;;;;;;;17.49;64.36;101969.63;4993688;28;20226;-53
2022/09/06 08:23:12;;;;;;;2.65;1.10;;;;;;;17.64;64.03;101977.94;4998338;28;20703;-52
2022/09/06 08:25:38;;;;;;;4.45;1.08;;;;;;;17.94;63.64;101963.84;5004534;28;20205;-52
2022/09/06 08:28:03;;;;;;;1.15;1.05;;;;;;;18.16;63.30;101955.47;4998127;28;20649;-53
2022/09/06 08:30:29;;;;;;;1.33;0.90;;;;;;;17.93;63.15;101944.00;4991147;28;20398;-54
2022/09/06 08:32:55;;;;;;;1.05;0.90;;;;;;;17.94;63.44;101950.28;4992239;28;20181;-52
2022/09/06 08:35:21;;;;;;;2.05;1.10;;;;;;;17.90;63.17;101961.25;4995584;28;20185;-55
2022/09/06 08:37:46;;;;;;;1.77;1.05;;;;;;;18.02;62.61;101961.63;4997659;28;20208;-53
2022/09/06 08:40:20;;;;;;;1.88;0.93;;;;;;;17.86;62.19;101961.50;5000322;28;20324;-53
2022/09/06 08:42:47;;;;;;;3.47;1.13;;;;;;;17.87;62.15;101966.84;4998094;28;20549;-52
2022/09/06 08:45:18;;;;;;;2.95;1.23;;;;;;;17.76;61.97;101957.50;5000491;28;20212;-51
2022/09/06 08:47:44;;;;;;;1.23;0.90;;;;;;;18.06;61.59;101958.66;4998195;28;20197;-51
2022/09/06 08:50:09;;;;;;;1.73;0.77;;;;;;;18.32;61.04;101954.59;4998508;28;20189;-51
2022/09/06 08:53:13;;;;;;;0.80;0.80;;;;;;;18.22;61.29;101947.88;4995269;28;20702;-51
2022/09/06 08:55:45;;;;;;;1.85;1.02;;;;;;;18.56;60.83;101951.50;5003148;28;20279;-53
2022/09/06 08:58:33;;;;;;;3.58;1.27;;;;;;;18.39;60.71;101956.97;4994447;28;20182;-53
2022/09/06 09:01:06;;;;;;;2.78;1.05;;;;;;;18.22;60.61;101952.44;4994815;28;20240;-52
2022/09/06 09:03:35;;;;;;;4.05;1.08;;;;;;;18.53;60.34;101955.25;4991541;28;20182;-53
2022/09/06 09:06:04;;;;;;;3.53;1.23;;;;;;;18.88;59.42;101962.50;4995078;28;20219;-52
2022/09/06 09:08:51;;;;;;;5.20;1.15;;;;;;;19.01;58.38;101968.13;4996652;28;20289;-52
2022/09/06 09:11:21;;;;;;;1.98;0.98;;;;;;;18.94;58.67;101963.03;4995615;28;20275;-54
2022/09/06 09:13:53;;;;;;;2.70;0.80;;;;;;;18.87;58.54;101958.91;4996888;28;20181;-48
2022/09/06 09:16:20;;;;;;;5.60;1.20;;;;;;;18.49;58.82;101961.81;4995062;28;20248;-48
2022/09/06 09:18:56;;;;;;;1.85;1.00;;;;;;;18.49;58.90;101966.38;4992747;28;20192;-52
2022/09/06 09:21:24;;;;;;;3.53;0.90;;;;;;;18.52;58.29;101967.09;4991171;28;20207;-53
2022/09/06 09:23:55;;;;;;;1.40;0.90;;;;;;;18.73;57.83;101962.31;4992748;28;20677;-52
2022/09/06 09:26:23;;;;;;;3.33;0.85;;;;;;;19.06;57.42;101952.44;4990154;28;20217;-52
2022/09/06 09:29:07;;;;;;;4.35;1.25;;;;;;;19.13;56.58;101945.69;4997259;28;20181;-50
2022/09/06 09:31:38;;;;;;;1.73;0.95;;;;;;;19.62;56.60;101942.00;5001516;28;20189;-52
2022/09/06 09:34:03;;;;;;;2.25;0.93;;;;;;;19.95;56.28;101944.59;4979253;28;20561;-52
2022/09/06 09:36:31;;;;;;;2.25;1.08;;;;;;;20.24;55.14;101947.41;5001745;28;20208;-51
2022/09/06 09:38:57;;;;;;;2.72;0.90;;;;;;;19.90;55.25;101942.16;4999550;28;20208;-51
2022/09/06 09:41:28;;;;;;;2.00;0.90;;;;;;;19.64;55.59;101945.53;4993523;28;20599;-51
2022/09/06 09:44:07;;;;;;;4.10;0.90;;;;;;;19.38;55.66;101939.75;4990569;28;20201;-51
2022/09/06 09:46:35;;;;;;;3.72;1.00;;;;;;;19.39;56.04;101944.19;4999805;28;20209;-53
2022/09/06 09:49:27;;;;;;;1.70;1.05;;;;;;;19.61;54.64;101938.38;4998432;28;20197;-52
2022/09/06 09:52:10;;;;;;;5.32;1.10;;;;;;;19.24;55.18;101947.81;5000350;28;20196;-53
2022/09/06 09:54:39;;;;;;;1.95;1.10;;;;;;;19.50;55.15;101922.75;5002311;28;20234;-51
2022/09/06 09:57:09;;;;;;;1.45;0.80;;;;;;;19.04;55.44;101946.22;5001605;28;20213;-51
2022/09/06 09:59:49;;;;;;;3.47;0.90;;;;;;;19.22;55.26;101928.88;5002054;28;20193;-51
2022/09/06 10:02:38;;;;;;;1.75;0.77;;;;;;;19.64;54.51;101930.06;5002489;28;20176;-51
2022/09/06 10:05:16;;;;;;;2.00;0.95;;;;;;;20.23;54.24;101932.06;5001512;28;20699;-52
2022/09/06 10:07:54;;;;;;;3.38;1.05;;;;;;;19.66;53.72;101917.28;4993001;28;20235;-52
2022/09/06 10:10:23;;;;;;;1.60;0.90;;;;;;;19.62;54.24;101918.41;5004541;28;20279;-48
2022/09/06 10:13:25;;;;;;;2.75;0.80;;;;;;;19.34;54.38;101932.72;4998387;28;20193;-49
2022/09/06 10:15:52;;;;;;;6.30;1.00;;;;;;;19.34;55.30;101921.88;4998957;28;20778;-49
2022/09/06 10:18:33;;;;;;;4.13;0.95;;;;;;;19.13;55.07;101932.09;4998482;28;20184;-49
2022/09/06 10:21:21;;;;;;;3.53;0.90;;;;;;;19.02;55.17;101932.75;4986213;28;20372;-53
2022/09/06 10:23:55;;;;;;;5.47;0.80;;;;;;;18.84;55.75;101923.75;4999797;28;20242;-48
2022/09/06 10:26:26;;;;;;;2.95;0.90;;;;;;;18.94;55.06;101925.00;4998294;28;20698;-48
2022/09/06 10:29:02;;;;;;;2.70;0.90;;;;;;;18.91;54.75;101929.72;5006951;28;20180;-48
2022/09/06 10:31:42;;;;;;;1.80;0.80;;;;;;;18.90;55.35;101923.41;4996551;28;20656;-49
2022/09/06 10:34:24;;;;;;;11.27;1.10;;;;;;;19.06;55.22;101919.84;4999821;28;20185;-48
2022/09/06 10:37:08;;;;;;;4.43;0.80;;;;;;;18.95;55.06;101920.44;4996852;28;20248;-47
2022/09/06 10:39:39;;;;;;;1.45;0.60;;;;;;;19.18;54.70;101915.56;4999443;28;20200;-48
2022/09/06 10:42:18;;;;;;;3.83;0.90;;;;;;;19.16;54.67;101907.50;4997144;28;20739;-48
2022/09/06 10:45:02;;;;;;;2.85;0.93;;;;;;;18.93;55.09;101916.94;4995784;28;20244;-49
2022/09/06 10:47:37;;;;;;;2.35;0.88;;;;;;;19.08;55.11;101904.34;4995111;28;20260;-49
2022/09/06 10:50:04;;;;;;;1.15;0.70;;;;;;;19.19;55.66;101899.16;5003936;28;20666;-48
2022/09/06 10:52:39;;;;;;;4.00;1.20;;;;;;;19.39;54.65;101888.97;5007871;28;20196;-47
2022/09/06 10:55:09;;;;;;;2.60;0.80;;;;;;;19.30;54.54;101899.41;5001536;28;20471;-48
2022/09/06 10:57:41;;;;;;;2.05;0.80;;;;;;;19.51;53.99;101891.00;4995953;28;20223;-48
2022/09/06 11:00:12;;;;;;;4.18;1.00;;;;;;;19.49;53.39;101901.06;4997173;28;20193;-48
2022/09/06 11:03:07;;;;;;;6.90;0.93;;;;;;;19.43;53.20;101894.13;4998934;28;20216;-51
2022/09/06 11:05:40;;;;;;;3.65;0.75;;;;;;;19.50;53.48;101891.94;4998867;28;20235;-48
2022/09/06 11:08:35;;;;;;;2.75;0.88;;;;;;;19.51;53.80;101891.84;5004900;28;20530;-46
2022/09/06 11:11:19;;;;;;;4.75;0.85;;;;;;;19.31;53.53;101890.31;5000984;28;20221;-48
2022/09/06 11:13:45;;;;;;;5.35;1.02;;;;;;;19.55;54.13;101892.56;5001571;28;20197;-52
2022/09/06 11:16:29;;;;;;;3.55;0.80;;;;;;;19.47;53.69;101892.13;5001093;28;20209;-52
2022/09/06 11:19:05;;;;;;;3.65;1.00;;;;;;;19.54;53.86;101897.09;5001960;28;20189;-53
2022/09/06 11:22:08;;;;;;;3.20;0.80;;;;;;;19.50;53.13;101870.19;5000058;28;20189;-52
2022/09/06 11:25:02;;;;;;;3.95;1.00;;;;;;;19.65;53.45;101882.88;4994546;28;20754;-51
2022/09/06 11:27:30;;;;;;;10.93;1.50;;;;;;;19.76;53.42;101896.72;4995926;28;20250;-51
2022/09/06 11:29:59;;;;;;;1.65;0.68;;;;;;;19.83;52.39;101883.66;4997322;28;20612;-53
2022/09/06 11:32:47;;;;;;;3.50;0.90;;;;;;;20.04;52.69;101878.75;4997989;28;20243;-50
2022/09/06 11:35:31;;;;;;;2.45;0.95;;;;;;;20.04;52.83;101873.31;4996327;28;20228;-52
2022/09/06 11:37:58;;;;;;;5.13;1.10;;;;;;;20.14;52.71;101876.34;4991537;28;20185;-53
2022/09/06 11:40:27;;;;;;;3.70;1.02;;;;;;;19.98;52.71;101876.41;4994989;28;20651;-49